sensor_id;sensor_type;location;lat;lon;timestamp;P1;durP1;ratioP1;P2;durP2;ratioP2
3757;SDS011;1894;51.038;13.692;2023-05-07T00:02:06;39.97;;;25.97;;
3757;SDS011;1894;51.038;13.692;2023-05-07T00:04:33;30.47;;;22.67;;
3757;SDS011;1894;51.038;13.692;2023-05-07T00:07:04;31.67;;;22.50;;
3757;SDS011;1894;51.038;13.692;2023-05-07T00:09:31;34.97;;;21.07;;
3757;SDS011;1894;51.038;13.692;2023-05-07T00:11:59;30.53;;;22.20;;
3757;SDS011;1894;51.038;13.692;2023-05-07T00:14:26;28.80;;;20.00;;
3757;SDS011;1894;51.038;13.692;2023-05-07T00:16:53;24.83;;;18.10;;
3757;SDS011;1894;51.038;13.692;2023-05-07T00:19:20;30.07;;;19.43;;
3757;SDS011;1894;51.038;13.692;2023-05-07T00:21:47;28.93;;;19.20;;
3757;SDS011;1894;51.038;13.692;2023-05-07T00:24:14;24.67;;;17.97;;
3757;SDS011;1894;51.038;13.692;2023-05-07T00:26:41;31.40;;;18.87;;
3757;SDS011;1894;51.038;13.692;2023-05-07T00:29:09;29.47;;;19.70;;
3757;SDS011;1894;51.038;13.692;2023-05-07T00:31:36;25.23;;;18.93;;
3757;SDS011;1894;51.038;13.692;2023-05-07T00:34:03;26.97;;;19.73;;
3757;SDS011;1894;51.038;13.692;2023-05-07T00:36:30;28.60;;;20.30;;
3757;SDS011;1894;51.038;13.692;2023-05-07T00:38:59;28.33;;;20.53;;
3757;SDS011;1894;51.038;13.692;2023-05-07T00:41:28;29.50;;;20.60;;
3757;SDS011;1894;51.038;13.692;2023-05-07T00:43:57;26.60;;;20.30;;
3757;SDS011;1894;51.038;13.692;2023-05-07T00:46:25;30.40;;;22.60;;
3757;SDS011;1894;51.038;13.692;2023-05-07T00:48:52;32.17;;;23.00;;
3757;SDS011;1894;51.038;13.692;2023-05-07T00:51:20;25.20;;;18.90;;
3757;SDS011;1894;51.038;13.692;2023-05-07T00:53:48;34.43;;;22.57;;
3757;SDS011;1894;51.038;13.692;2023-05-07T00:56:16;28.20;;;21.93;;
3757;SDS011;1894;51.038;13.692;2023-05-07T00:58:43;30.73;;;23.83;;
3757;SDS011;1894;51.038;13.692;2023-05-07T01:01:10;34.27;;;24.90;;
3757;SDS011;1894;51.038;13.692;2023-05-07T01:03:38;32.37;;;24.00;;
3757;SDS011;1894;51.038;13.692;2023-05-07T01:06:05;40.93;;;24.60;;
3757;SDS011;1894;51.038;13.692;2023-05-07T01:08:34;31.00;;;22.57;;
3757;SDS011;1894;51.038;13.692;2023-05-07T01:11:02;33.00;;;24.37;;
3757;SDS011;1894;51.038;13.692;2023-05-07T01:13:30;32.60;;;24.30;;
3757;SDS011;1894;51.038;13.692;2023-05-07T01:15:58;29.27;;;21.93;;
3757;SDS011;1894;51.038;13.692;2023-05-07T01:18:25;25.93;;;20.13;;
3757;SDS011;1894;51.038;13.692;2023-05-07T01:20:53;28.63;;;21.30;;
3757;SDS011;1894;51.038;13.692;2023-05-07T01:23:22;30.40;;;21.43;;
3757;SDS011;1894;51.038;13.692;2023-05-07T01:25:51;28.93;;;22.00;;
3757;SDS011;1894;51.038;13.692;2023-05-07T01:28:20;25.20;;;20.70;;
3757;SDS011;1894;51.038;13.692;2023-05-07T01:30:54;24.10;;;19.30;;
3757;SDS011;1894;51.038;13.692;2023-05-07T01:33:28;24.70;;;19.37;;
3757;SDS011;1894;51.038;13.692;2023-05-07T01:35:58;26.70;;;19.50;;
3757;SDS011;1894;51.038;13.692;2023-05-07T01:38:28;23.00;;;17.80;;
3757;SDS011;1894;51.038;13.692;2023-05-07T01:40:56;26.23;;;20.53;;
3757;SDS011;1894;51.038;13.692;2023-05-07T01:43:24;21.40;;;18.33;;
3757;SDS011;1894;51.038;13.692;2023-05-07T01:45:52;26.67;;;20.40;;
3757;SDS011;1894;51.038;13.692;2023-05-07T01:48:20;27.40;;;19.27;;
3757;SDS011;1894;51.038;13.692;2023-05-07T01:50:47;29.20;;;19.60;;
3757;SDS011;1894;51.038;13.692;2023-05-07T01:53:15;19.70;;;16.10;;
3757;SDS011;1894;51.038;13.692;2023-05-07T01:55:42;23.53;;;17.53;;
3757;SDS011;1894;51.038;13.692;2023-05-07T01:58:09;23.40;;;17.83;;
3757;SDS011;1894;51.038;13.692;2023-05-07T02:00:37;21.70;;;18.10;;
3757;SDS011;1894;51.038;13.692;2023-05-07T02:03:07;21.23;;;17.23;;
3757;SDS011;1894;51.038;13.692;2023-05-07T02:05:51;26.50;;;19.17;;
3757;SDS011;1894;51.038;13.692;2023-05-07T02:08:26;23.00;;;18.80;;
3757;SDS011;1894;51.038;13.692;2023-05-07T02:10:54;25.20;;;18.30;;
3757;SDS011;1894;51.038;13.692;2023-05-07T02:13:21;25.07;;;18.73;;
3757;SDS011;1894;51.038;13.692;2023-05-07T02:15:50;24.03;;;18.80;;
3757;SDS011;1894;51.038;13.692;2023-05-07T02:18:18;20.80;;;17.77;;
3757;SDS011;1894;51.038;13.692;2023-05-07T02:20:45;24.70;;;18.23;;
3757;SDS011;1894;51.038;13.692;2023-05-07T02:23:12;22.40;;;17.83;;
3757;SDS011;1894;51.038;13.692;2023-05-07T02:25:40;23.70;;;19.10;;
3757;SDS011;1894;51.038;13.692;2023-05-07T02:28:07;21.53;;;17.70;;
3757;SDS011;1894;51.038;13.692;2023-05-07T02:30:49;25.60;;;18.37;;
3757;SDS011;1894;51.038;13.692;2023-05-07T02:33:18;25.57;;;18.70;;
3757;SDS011;1894;51.038;13.692;2023-05-07T02:35:46;22.27;;;17.77;;
3757;SDS011;1894;51.038;13.692;2023-05-07T02:38:14;25.30;;;19.20;;
3757;SDS011;1894;51.038;13.692;2023-05-07T02:40:42;21.87;;;17.73;;
3757;SDS011;1894;51.038;13.692;2023-05-07T02:43:10;23.67;;;18.20;;
3757;SDS011;1894;51.038;13.692;2023-05-07T02:45:41;22.20;;;17.17;;
3757;SDS011;1894;51.038;13.692;2023-05-07T02:48:10;26.50;;;19.43;;
3757;SDS011;1894;51.038;13.692;2023-05-07T02:50:37;24.63;;;18.10;;
3757;SDS011;1894;51.038;13.692;2023-05-07T02:53:04;23.03;;;18.60;;
3757;SDS011;1894;51.038;13.692;2023-05-07T02:55:32;19.17;;;16.37;;
3757;SDS011;1894;51.038;13.692;2023-05-07T02:57:59;21.33;;;17.20;;
3757;SDS011;1894;51.038;13.692;2023-05-07T03:00:26;21.40;;;17.90;;
3757;SDS011;1894;51.038;13.692;2023-05-07T03:03:04;18.80;;;16.13;;
3757;SDS011;1894;51.038;13.692;2023-05-07T03:05:31;19.37;;;16.13;;
3757;SDS011;1894;51.038;13.692;2023-05-07T03:07:58;20.60;;;16.37;;
3757;SDS011;1894;51.038;13.692;2023-05-07T03:10:25;21.60;;;15.77;;
3757;SDS011;1894;51.038;13.692;2023-05-07T03:12:52;21.60;;;16.50;;
3757;SDS011;1894;51.038;13.692;2023-05-07T03:15:20;20.50;;;14.93;;
3757;SDS011;1894;51.038;13.692;2023-05-07T03:17:48;20.63;;;16.10;;
3757;SDS011;1894;51.038;13.692;2023-05-07T03:20:15;21.73;;;14.90;;
3757;SDS011;1894;51.038;13.692;2023-05-07T03:22:42;15.70;;;12.93;;
3757;SDS011;1894;51.038;13.692;2023-05-07T03:25:09;15.37;;;12.40;;
3757;SDS011;1894;51.038;13.692;2023-05-07T03:27:37;16.47;;;12.67;;
3757;SDS011;1894;51.038;13.692;2023-05-07T03:30:04;19.00;;;13.70;;
3757;SDS011;1894;51.038;13.692;2023-05-07T03:32:33;16.50;;;12.90;;
3757;SDS011;1894;51.038;13.692;2023-05-07T03:35:04;15.50;;;11.80;;
3757;SDS011;1894;51.038;13.692;2023-05-07T03:37:32;14.73;;;11.37;;
3757;SDS011;1894;51.038;13.692;2023-05-07T03:39:59;13.17;;;9.80;;
3757;SDS011;1894;51.038;13.692;2023-05-07T03:42:28;15.20;;;11.20;;
3757;SDS011;1894;51.038;13.692;2023-05-07T03:44:56;15.73;;;11.00;;
3757;SDS011;1894;51.038;13.692;2023-05-07T03:47:23;16.10;;;10.80;;
3757;SDS011;1894;51.038;13.692;2023-05-07T03:49:50;12.60;;;10.13;;
3757;SDS011;1894;51.038;13.692;2023-05-07T03:52:22;20.13;;;12.60;;
3757;SDS011;1894;51.038;13.692;2023-05-07T03:54:54;15.13;;;11.87;;
3757;SDS011;1894;51.038;13.692;2023-05-07T03:57:22;14.60;;;11.33;;
3757;SDS011;1894;51.038;13.692;2023-05-07T03:59:49;17.13;;;12.57;;
3757;SDS011;1894;51.038;13.692;2023-05-07T04:02:16;17.90;;;11.43;;
3757;SDS011;1894;51.038;13.692;2023-05-07T04:04:44;13.50;;;11.63;;
3757;SDS011;1894;51.038;13.692;2023-05-07T04:07:12;16.03;;;12.73;;
3757;SDS011;1894;51.038;13.692;2023-05-07T04:09:43;14.90;;;11.80;;
3757;SDS011;1894;51.038;13.692;2023-05-07T04:12:10;16.07;;;12.07;;
3757;SDS011;1894;51.038;13.692;2023-05-07T04:14:37;16.17;;;12.77;;
3757;SDS011;1894;51.038;13.692;2023-05-07T04:17:04;17.23;;;12.37;;
3757;SDS011;1894;51.038;13.692;2023-05-07T04:19:33;16.57;;;12.10;;
3757;SDS011;1894;51.038;13.692;2023-05-07T04:22:00;16.60;;;12.93;;
3757;SDS011;1894;51.038;13.692;2023-05-07T04:24:31;16.40;;;12.47;;
3757;SDS011;1894;51.038;13.692;2023-05-07T04:27:00;18.13;;;13.23;;
3757;SDS011;1894;51.038;13.692;2023-05-07T04:29:28;17.30;;;12.80;;
3757;SDS011;1894;51.038;13.692;2023-05-07T04:31:55;17.03;;;13.13;;
3757;SDS011;1894;51.038;13.692;2023-05-07T04:34:23;18.33;;;12.40;;
3757;SDS011;1894;51.038;13.692;2023-05-07T04:36:50;15.70;;;12.43;;
3757;SDS011;1894;51.038;13.692;2023-05-07T04:39:17;14.93;;;12.67;;
3757;SDS011;1894;51.038;13.692;2023-05-07T04:41:47;15.63;;;10.77;;
3757;SDS011;1894;51.038;13.692;2023-05-07T04:44:15;17.50;;;12.20;;
3757;SDS011;1894;51.038;13.692;2023-05-07T04:46:44;18.73;;;12.77;;
3757;SDS011;1894;51.038;13.692;2023-05-07T04:49:11;15.33;;;11.37;;
3757;SDS011;1894;51.038;13.692;2023-05-07T04:51:39;15.03;;;11.87;;
3757;SDS011;1894;51.038;13.692;2023-05-07T04:54:11;16.97;;;12.30;;
3757;SDS011;1894;51.038;13.692;2023-05-07T04:56:38;16.30;;;12.73;;
3757;SDS011;1894;51.038;13.692;2023-05-07T04:59:05;16.90;;;12.53;;
3757;SDS011;1894;51.038;13.692;2023-05-07T05:01:33;18.10;;;12.53;;
3757;SDS011;1894;51.038;13.692;2023-05-07T05:04:01;18.80;;;13.03;;
3757;SDS011;1894;51.038;13.692;2023-05-07T05:06:28;16.60;;;12.33;;
3757;SDS011;1894;51.038;13.692;2023-05-07T05:08:56;15.90;;;12.07;;
3757;SDS011;1894;51.038;13.692;2023-05-07T05:11:24;15.53;;;12.10;;
3757;SDS011;1894;51.038;13.692;2023-05-07T05:13:52;15.23;;;12.20;;
3757;SDS011;1894;51.038;13.692;2023-05-07T05:16:20;18.13;;;11.90;;
3757;SDS011;1894;51.038;13.692;2023-05-07T05:18:47;18.70;;;12.40;;
3757;SDS011;1894;51.038;13.692;2023-05-07T05:21:17;14.70;;;11.47;;
3757;SDS011;1894;51.038;13.692;2023-05-07T05:23:47;17.67;;;12.40;;
3757;SDS011;1894;51.038;13.692;2023-05-07T05:26:18;18.77;;;12.97;;
3757;SDS011;1894;51.038;13.692;2023-05-07T05:28:45;14.80;;;11.43;;
3757;SDS011;1894;51.038;13.692;2023-05-07T05:31:13;16.23;;;11.60;;
3757;SDS011;1894;51.038;13.692;2023-05-07T05:33:42;14.30;;;10.77;;
3757;SDS011;1894;51.038;13.692;2023-05-07T05:36:09;14.03;;;11.00;;
3757;SDS011;1894;51.038;13.692;2023-05-07T05:38:37;15.83;;;11.80;;
3757;SDS011;1894;51.038;13.692;2023-05-07T05:41:06;16.27;;;11.40;;
3757;SDS011;1894;51.038;13.692;2023-05-07T05:43:34;15.87;;;11.30;;
3757;SDS011;1894;51.038;13.692;2023-05-07T05:46:01;15.80;;;11.10;;
3757;SDS011;1894;51.038;13.692;2023-05-07T05:48:29;17.67;;;12.37;;
3757;SDS011;1894;51.038;13.692;2023-05-07T05:50:59;13.80;;;10.40;;
3757;SDS011;1894;51.038;13.692;2023-05-07T05:53:26;15.67;;;11.73;;
3757;SDS011;1894;51.038;13.692;2023-05-07T05:55:53;15.70;;;11.93;;
3757;SDS011;1894;51.038;13.692;2023-05-07T05:58:21;16.03;;;12.43;;
3757;SDS011;1894;51.038;13.692;2023-05-07T06:00:54;19.90;;;14.27;;
3757;SDS011;1894;51.038;13.692;2023-05-07T06:03:23;18.37;;;14.10;;
3757;SDS011;1894;51.038;13.692;2023-05-07T06:05:51;20.60;;;14.33;;
3757;SDS011;1894;51.038;13.692;2023-05-07T06:08:20;16.90;;;12.70;;
3757;SDS011;1894;51.038;13.692;2023-05-07T06:10:47;16.20;;;12.97;;
3757;SDS011;1894;51.038;13.692;2023-05-07T06:13:15;18.93;;;12.67;;
3757;SDS011;1894;51.038;13.692;2023-05-07T06:15:42;21.10;;;11.30;;
3757;SDS011;1894;51.038;13.692;2023-05-07T06:18:11;16.73;;;13.17;;
3757;SDS011;1894;51.038;13.692;2023-05-07T06:20:39;14.27;;;10.43;;
3757;SDS011;1894;51.038;13.692;2023-05-07T06:23:12;13.30;;;10.23;;
3757;SDS011;1894;51.038;13.692;2023-05-07T06:25:47;13.67;;;9.77;;
3757;SDS011;1894;51.038;13.692;2023-05-07T06:28:18;11.70;;;9.33;;
3757;SDS011;1894;51.038;13.692;2023-05-07T06:30:46;9.43;;;7.47;;
3757;SDS011;1894;51.038;13.692;2023-05-07T06:33:14;10.00;;;8.53;;
3757;SDS011;1894;51.038;13.692;2023-05-07T06:35:41;8.63;;;7.60;;
3757;SDS011;1894;51.038;13.692;2023-05-07T06:38:08;12.60;;;8.57;;
3757;SDS011;1894;51.038;13.692;2023-05-07T06:40:36;9.27;;;6.63;;
3757;SDS011;1894;51.038;13.692;2023-05-07T06:43:03;10.30;;;7.20;;
3757;SDS011;1894;51.038;13.692;2023-05-07T06:45:41;10.43;;;6.93;;
3757;SDS011;1894;51.038;13.692;2023-05-07T06:48:09;6.83;;;6.03;;
3757;SDS011;1894;51.038;13.692;2023-05-07T06:50:53;6.23;;;5.53;;
3757;SDS011;1894;51.038;13.692;2023-05-07T06:53:24;7.80;;;6.80;;
3757;SDS011;1894;51.038;13.692;2023-05-07T06:55:54;8.40;;;7.20;;
3757;SDS011;1894;51.038;13.692;2023-05-07T06:58:21;9.07;;;7.50;;
3757;SDS011;1894;51.038;13.692;2023-05-07T07:00:49;8.17;;;7.23;;
3757;SDS011;1894;51.038;13.692;2023-05-07T07:03:16;8.43;;;5.60;;
3757;SDS011;1894;51.038;13.692;2023-05-07T07:05:45;9.97;;;7.33;;
3757;SDS011;1894;51.038;13.692;2023-05-07T07:08:13;8.47;;;6.30;;
3757;SDS011;1894;51.038;13.692;2023-05-07T07:10:41;8.00;;;7.20;;
3757;SDS011;1894;51.038;13.692;2023-05-07T07:13:09;7.87;;;6.63;;
3757;SDS011;1894;51.038;13.692;2023-05-07T07:15:36;9.57;;;7.40;;
3757;SDS011;1894;51.038;13.692;2023-05-07T07:18:04;10.67;;;6.73;;
3757;SDS011;1894;51.038;13.692;2023-05-07T07:20:33;10.80;;;8.30;;
3757;SDS011;1894;51.038;13.692;2023-05-07T07:23:02;10.27;;;8.63;;
3757;SDS011;1894;51.038;13.692;2023-05-07T07:25:29;12.33;;;8.50;;
3757;SDS011;1894;51.038;13.692;2023-05-07T07:27:57;12.07;;;8.67;;
3757;SDS011;1894;51.038;13.692;2023-05-07T07:30:26;12.03;;;8.50;;
3757;SDS011;1894;51.038;13.692;2023-05-07T07:32:53;10.13;;;7.93;;
3757;SDS011;1894;51.038;13.692;2023-05-07T07:35:22;10.53;;;8.10;;
3757;SDS011;1894;51.038;13.692;2023-05-07T07:37:51;8.50;;;7.70;;
3757;SDS011;1894;51.038;13.692;2023-05-07T07:40:19;7.13;;;6.43;;
3757;SDS011;1894;51.038;13.692;2023-05-07T07:42:46;8.97;;;6.80;;
3757;SDS011;1894;51.038;13.692;2023-05-07T07:45:13;7.27;;;6.07;;
3757;SDS011;1894;51.038;13.692;2023-05-07T07:47:48;6.33;;;5.30;;
3757;SDS011;1894;51.038;13.692;2023-05-07T07:50:15;6.67;;;5.30;;
3757;SDS011;1894;51.038;13.692;2023-05-07T07:53:04;6.60;;;5.03;;
3757;SDS011;1894;51.038;13.692;2023-05-07T07:55:32;6.60;;;5.77;;
3757;SDS011;1894;51.038;13.692;2023-05-07T07:58:08;5.70;;;5.10;;
3757;SDS011;1894;51.038;13.692;2023-05-07T08:00:36;5.00;;;4.50;;
3757;SDS011;1894;51.038;13.692;2023-05-07T08:03:03;6.00;;;4.80;;
3757;SDS011;1894;51.038;13.692;2023-05-07T08:05:39;4.67;;;3.77;;
3757;SDS011;1894;51.038;13.692;2023-05-07T08:08:07;5.10;;;4.20;;
3757;SDS011;1894;51.038;13.692;2023-05-07T08:10:37;5.03;;;4.50;;
3757;SDS011;1894;51.038;13.692;2023-05-07T08:13:12;5.93;;;4.40;;
3757;SDS011;1894;51.038;13.692;2023-05-07T08:15:41;6.90;;;4.97;;
3757;SDS011;1894;51.038;13.692;2023-05-07T08:18:09;4.63;;;4.23;;
3757;SDS011;1894;51.038;13.692;2023-05-07T08:20:38;5.13;;;4.53;;
3757;SDS011;1894;51.038;13.692;2023-05-07T08:23:08;5.50;;;4.97;;
3757;SDS011;1894;51.038;13.692;2023-05-07T08:25:37;6.17;;;4.57;;
3757;SDS011;1894;51.038;13.692;2023-05-07T08:28:04;6.00;;;4.33;;
3757;SDS011;1894;51.038;13.692;2023-05-07T08:30:36;10.80;;;7.30;;
3757;SDS011;1894;51.038;13.692;2023-05-07T08:33:03;4.77;;;4.17;;
3757;SDS011;1894;51.038;13.692;2023-05-07T08:35:31;3.93;;;3.53;;
3757;SDS011;1894;51.038;13.692;2023-05-07T08:37:58;3.97;;;3.57;;
3757;SDS011;1894;51.038;13.692;2023-05-07T08:40:26;4.10;;;3.40;;
3757;SDS011;1894;51.038;13.692;2023-05-07T08:42:56;4.20;;;3.80;;
3757;SDS011;1894;51.038;13.692;2023-05-07T08:45:24;3.80;;;3.47;;
3757;SDS011;1894;51.038;13.692;2023-05-07T08:47:55;4.30;;;3.90;;
3757;SDS011;1894;51.038;13.692;2023-05-07T08:50:31;4.80;;;4.40;;
3757;SDS011;1894;51.038;13.692;2023-05-07T08:52:58;3.30;;;3.00;;
3757;SDS011;1894;51.038;13.692;2023-05-07T08:55:27;3.73;;;3.30;;
3757;SDS011;1894;51.038;13.692;2023-05-07T08:57:57;4.00;;;3.70;;
3757;SDS011;1894;51.038;13.692;2023-05-07T09:00:24;4.87;;;4.37;;
3757;SDS011;1894;51.038;13.692;2023-05-07T09:02:53;4.70;;;3.57;;
3757;SDS011;1894;51.038;13.692;2023-05-07T09:05:20;4.40;;;4.00;;
3757;SDS011;1894;51.038;13.692;2023-05-07T09:07:49;3.53;;;3.23;;
3757;SDS011;1894;51.038;13.692;2023-05-07T09:10:20;4.73;;;4.10;;
3757;SDS011;1894;51.038;13.692;2023-05-07T09:12:48;5.57;;;4.40;;
3757;SDS011;1894;51.038;13.692;2023-05-07T09:15:17;4.47;;;4.07;;
3757;SDS011;1894;51.038;13.692;2023-05-07T09:17:45;4.90;;;4.50;;
3757;SDS011;1894;51.038;13.692;2023-05-07T09:20:13;6.23;;;5.70;;
3757;SDS011;1894;51.038;13.692;2023-05-07T09:22:41;6.43;;;5.80;;
3757;SDS011;1894;51.038;13.692;2023-05-07T09:25:11;7.23;;;5.90;;
3757;SDS011;1894;51.038;13.692;2023-05-07T09:27:41;7.77;;;7.13;;
3757;SDS011;1894;51.038;13.692;2023-05-07T09:30:10;9.43;;;6.30;;
3757;SDS011;1894;51.038;13.692;2023-05-07T09:32:37;6.17;;;5.60;;
3757;SDS011;1894;51.038;13.692;2023-05-07T09:35:15;9.50;;;6.10;;
3757;SDS011;1894;51.038;13.692;2023-05-07T09:37:48;7.70;;;6.07;;
3757;SDS011;1894;51.038;13.692;2023-05-07T09:40:20;6.50;;;5.83;;
3757;SDS011;1894;51.038;13.692;2023-05-07T09:42:51;6.80;;;6.10;;
3757;SDS011;1894;51.038;13.692;2023-05-07T09:45:28;6.87;;;5.87;;
3757;SDS011;1894;51.038;13.692;2023-05-07T09:47:57;7.93;;;6.80;;
3757;SDS011;1894;51.038;13.692;2023-05-07T09:50:28;6.37;;;5.80;;
3757;SDS011;1894;51.038;13.692;2023-05-07T09:52:59;8.97;;;6.50;;
3757;SDS011;1894;51.038;13.692;2023-05-07T09:55:27;6.53;;;5.80;;
3757;SDS011;1894;51.038;13.692;2023-05-07T09:57:55;8.30;;;6.00;;
3757;SDS011;1894;51.038;13.692;2023-05-07T10:00:26;6.53;;;5.80;;
3757;SDS011;1894;51.038;13.692;2023-05-07T10:03:05;6.37;;;5.77;;
3757;SDS011;1894;51.038;13.692;2023-05-07T10:05:49;6.70;;;6.00;;
3757;SDS011;1894;51.038;13.692;2023-05-07T10:08:19;6.53;;;5.93;;
3757;SDS011;1894;51.038;13.692;2023-05-07T10:10:50;6.60;;;5.03;;
3757;SDS011;1894;51.038;13.692;2023-05-07T10:13:21;7.10;;;5.70;;
3757;SDS011;1894;51.038;13.692;2023-05-07T10:15:52;9.23;;;6.57;;
3757;SDS011;1894;51.038;13.692;2023-05-07T10:18:25;10.40;;;6.40;;
3757;SDS011;1894;51.038;13.692;2023-05-07T10:21:11;9.80;;;7.50;;
3757;SDS011;1894;51.038;13.692;2023-05-07T10:24:00;7.67;;;6.80;;
3757;SDS011;1894;51.038;13.692;2023-05-07T10:26:38;7.80;;;6.70;;
3757;SDS011;1894;51.038;13.692;2023-05-07T10:29:10;7.03;;;6.20;;
3757;SDS011;1894;51.038;13.692;2023-05-07T10:35:02;7.33;;;6.63;;
3757;SDS011;1894;51.038;13.692;2023-05-07T10:37:33;7.40;;;6.70;;
3757;SDS011;1894;51.038;13.692;2023-05-07T10:40:01;8.93;;;7.40;;
3757;SDS011;1894;51.038;13.692;2023-05-07T10:42:30;8.03;;;6.37;;
3757;SDS011;1894;51.038;13.692;2023-05-07T10:44:58;7.07;;;6.40;;
3757;SDS011;1894;51.038;13.692;2023-05-07T10:51:40;7.73;;;6.60;;
3757;SDS011;1894;51.038;13.692;2023-05-07T10:56:40;8.60;;;6.60;;
3757;SDS011;1894;51.038;13.692;2023-05-07T11:04:37;6.80;;;6.20;;
3757;SDS011;1894;51.038;13.692;2023-05-07T11:07:25;8.00;;;6.90;;
3757;SDS011;1894;51.038;13.692;2023-05-07T11:10:00;7.10;;;6.40;;
3757;SDS011;1894;51.038;13.692;2023-05-07T11:12:54;7.10;;;6.40;;
3757;SDS011;1894;51.038;13.692;2023-05-07T11:15:40;5.83;;;5.30;;
3757;SDS011;1894;51.038;13.692;2023-05-07T11:18:22;7.13;;;6.43;;
3757;SDS011;1894;51.038;13.692;2023-05-07T11:20:57;6.17;;;5.57;;
3757;SDS011;1894;51.038;13.692;2023-05-07T11:26:26;6.20;;;5.70;;
3757;SDS011;1894;51.038;13.692;2023-05-07T11:28:55;6.40;;;5.80;;
3757;SDS011;1894;51.038;13.692;2023-05-07T11:31:26;6.63;;;6.03;;
3757;SDS011;1894;51.038;13.692;2023-05-07T11:34:00;8.53;;;4.97;;
3757;SDS011;1894;51.038;13.692;2023-05-07T11:36:31;6.40;;;5.90;;
3757;SDS011;1894;51.038;13.692;2023-05-07T11:39:03;9.60;;;6.80;;
3757;SDS011;1894;51.038;13.692;2023-05-07T11:41:35;5.00;;;4.60;;
3757;SDS011;1894;51.038;13.692;2023-05-07T11:44:05;6.53;;;5.13;;
3757;SDS011;1894;51.038;13.692;2023-05-07T11:46:34;6.17;;;5.60;;
3757;SDS011;1894;51.038;13.692;2023-05-07T11:49:02;6.40;;;5.80;;
3757;SDS011;1894;51.038;13.692;2023-05-07T11:51:33;5.50;;;5.00;;
3757;SDS011;1894;51.038;13.692;2023-05-07T11:54:00;5.90;;;5.40;;
3757;SDS011;1894;51.038;13.692;2023-05-07T11:56:35;5.90;;;5.40;;
3757;SDS011;1894;51.038;13.692;2023-05-07T11:59:03;7.07;;;6.40;;
3757;SDS011;1894;51.038;13.692;2023-05-07T12:01:31;7.90;;;6.27;;
3757;SDS011;1894;51.038;13.692;2023-05-07T12:03:59;7.33;;;5.30;;
3757;SDS011;1894;51.038;13.692;2023-05-07T12:06:35;6.40;;;5.37;;
3757;SDS011;1894;51.038;13.692;2023-05-07T12:09:04;6.70;;;6.07;;
3757;SDS011;1894;51.038;13.692;2023-05-07T12:11:36;6.07;;;5.53;;
3757;SDS011;1894;51.038;13.692;2023-05-07T12:14:06;5.80;;;5.33;;
3757;SDS011;1894;51.038;13.692;2023-05-07T12:16:42;5.40;;;4.90;;
3757;SDS011;1894;51.038;13.692;2023-05-07T12:19:10;6.10;;;5.50;;
3757;SDS011;1894;51.038;13.692;2023-05-07T12:21:41;5.03;;;4.60;;
3757;SDS011;1894;51.038;13.692;2023-05-07T12:24:09;5.60;;;5.10;;
3757;SDS011;1894;51.038;13.692;2023-05-07T12:26:39;5.83;;;5.33;;
3757;SDS011;1894;51.038;13.692;2023-05-07T12:29:12;5.77;;;5.27;;
3757;SDS011;1894;51.038;13.692;2023-05-07T12:31:43;6.40;;;5.80;;
3757;SDS011;1894;51.038;13.692;2023-05-07T12:34:18;10.03;;;6.60;;
3757;SDS011;1894;51.038;13.692;2023-05-07T12:37:01;6.40;;;5.80;;
3757;SDS011;1894;51.038;13.692;2023-05-07T12:39:30;8.97;;;5.70;;
3757;SDS011;1894;51.038;13.692;2023-05-07T12:41:58;6.70;;;6.00;;
3757;SDS011;1894;51.038;13.692;2023-05-07T12:44:32;6.63;;;5.97;;
3757;SDS011;1894;51.038;13.692;2023-05-07T12:47:03;6.00;;;5.50;;
3757;SDS011;1894;51.038;13.692;2023-05-07T12:49:37;7.57;;;5.53;;
3757;SDS011;1894;51.038;13.692;2023-05-07T12:52:05;6.20;;;5.70;;
3757;SDS011;1894;51.038;13.692;2023-05-07T12:54:34;6.67;;;6.07;;
3757;SDS011;1894;51.038;13.692;2023-05-07T12:57:04;5.80;;;5.17;;
3757;SDS011;1894;51.038;13.692;2023-05-07T12:59:37;5.90;;;5.30;;
3757;SDS011;1894;51.038;13.692;2023-05-07T13:02:10;5.40;;;4.90;;
3757;SDS011;1894;51.038;13.692;2023-05-07T13:04:40;6.90;;;5.07;;
3757;SDS011;1894;51.038;13.692;2023-05-07T13:07:07;6.53;;;5.93;;
3757;SDS011;1894;51.038;13.692;2023-05-07T13:09:35;6.80;;;5.37;;
3757;SDS011;1894;51.038;13.692;2023-05-07T13:12:03;10.90;;;5.17;;
3757;SDS011;1894;51.038;13.692;2023-05-07T13:14:31;5.70;;;5.10;;
3757;SDS011;1894;51.038;13.692;2023-05-07T13:16:58;5.90;;;5.37;;
3757;SDS011;1894;51.038;13.692;2023-05-07T13:19:26;5.67;;;5.10;;
3757;SDS011;1894;51.038;13.692;2023-05-07T13:21:59;7.17;;;6.47;;
3757;SDS011;1894;51.038;13.692;2023-05-07T13:24:26;5.73;;;5.33;;
3757;SDS011;1894;51.038;13.692;2023-05-07T13:26:55;5.93;;;5.33;;
3757;SDS011;1894;51.038;13.692;2023-05-07T13:29:27;6.00;;;5.30;;
3757;SDS011;1894;51.038;13.692;2023-05-07T13:31:56;5.23;;;4.83;;
3757;SDS011;1894;51.038;13.692;2023-05-07T13:34:23;6.40;;;5.80;;
3757;SDS011;1894;51.038;13.692;2023-05-07T13:36:51;4.50;;;4.10;;
3757;SDS011;1894;51.038;13.692;2023-05-07T13:39:18;9.00;;;4.53;;
3757;SDS011;1894;51.038;13.692;2023-05-07T13:41:46;5.33;;;4.83;;
3757;SDS011;1894;51.038;13.692;2023-05-07T13:44:13;4.97;;;4.57;;
3757;SDS011;1894;51.038;13.692;2023-05-07T13:46:40;4.60;;;4.27;;
3757;SDS011;1894;51.038;13.692;2023-05-07T13:49:10;4.67;;;4.27;;
3757;SDS011;1894;51.038;13.692;2023-05-07T13:51:38;5.40;;;5.00;;
3757;SDS011;1894;51.038;13.692;2023-05-07T13:54:08;5.57;;;4.77;;
3757;SDS011;1894;51.038;13.692;2023-05-07T13:56:35;5.13;;;4.63;;
3757;SDS011;1894;51.038;13.692;2023-05-07T13:59:06;4.60;;;4.20;;
3757;SDS011;1894;51.038;13.692;2023-05-07T14:01:34;4.07;;;3.73;;
3757;SDS011;1894;51.038;13.692;2023-05-07T14:04:01;4.70;;;4.40;;
3757;SDS011;1894;51.038;13.692;2023-05-07T14:06:28;4.80;;;4.40;;
3757;SDS011;1894;51.038;13.692;2023-05-07T14:08:56;6.23;;;4.77;;
3757;SDS011;1894;51.038;13.692;2023-05-07T14:11:24;4.33;;;4.03;;
3757;SDS011;1894;51.038;13.692;2023-05-07T14:13:51;4.67;;;4.07;;
3757;SDS011;1894;51.038;13.692;2023-05-07T14:16:19;6.00;;;3.87;;
3757;SDS011;1894;51.038;13.692;2023-05-07T14:18:47;3.90;;;3.50;;
3757;SDS011;1894;51.038;13.692;2023-05-07T14:21:15;5.00;;;4.30;;
3757;SDS011;1894;51.038;13.692;2023-05-07T14:23:42;4.20;;;3.90;;
3757;SDS011;1894;51.038;13.692;2023-05-07T14:26:12;10.23;;;4.43;;
3757;SDS011;1894;51.038;13.692;2023-05-07T14:28:39;5.43;;;3.53;;
3757;SDS011;1894;51.038;13.692;2023-05-07T14:31:07;3.47;;;3.17;;
3757;SDS011;1894;51.038;13.692;2023-05-07T14:33:38;3.97;;;3.67;;
3757;SDS011;1894;51.038;13.692;2023-05-07T14:36:08;4.70;;;3.70;;
3757;SDS011;1894;51.038;13.692;2023-05-07T14:38:35;3.17;;;2.90;;
3757;SDS011;1894;51.038;13.692;2023-05-07T14:41:02;3.13;;;2.83;;
3757;SDS011;1894;51.038;13.692;2023-05-07T14:43:29;5.17;;;2.70;;
3757;SDS011;1894;51.038;13.692;2023-05-07T14:45:57;3.07;;;2.87;;
3757;SDS011;1894;51.038;13.692;2023-05-07T14:48:24;3.33;;;3.03;;
3757;SDS011;1894;51.038;13.692;2023-05-07T14:50:54;3.00;;;2.50;;
3757;SDS011;1894;51.038;13.692;2023-05-07T14:53:22;3.20;;;2.93;;
3757;SDS011;1894;51.038;13.692;2023-05-07T14:55:49;6.87;;;2.40;;
3757;SDS011;1894;51.038;13.692;2023-05-07T14:58:17;3.00;;;2.47;;
3757;SDS011;1894;51.038;13.692;2023-05-07T15:00:44;2.73;;;2.47;;
3757;SDS011;1894;51.038;13.692;2023-05-07T15:03:11;3.03;;;2.83;;
3757;SDS011;1894;51.038;13.692;2023-05-07T15:05:42;3.10;;;2.90;;
3757;SDS011;1894;51.038;13.692;2023-05-07T15:08:09;2.77;;;2.50;;
3757;SDS011;1894;51.038;13.692;2023-05-07T15:10:37;3.27;;;3.03;;
3757;SDS011;1894;51.038;13.692;2023-05-07T15:13:08;3.40;;;3.10;;
3757;SDS011;1894;51.038;13.692;2023-05-07T15:15:42;3.97;;;3.57;;
3757;SDS011;1894;51.038;13.692;2023-05-07T15:18:11;3.43;;;3.17;;
3757;SDS011;1894;51.038;13.692;2023-05-07T15:20:39;3.33;;;3.13;;